sensor_id;sensor_type;location;lat;lon;timestamp;P1;durP1;ratioP1;P2;durP2;ratioP2
70270;SDS011;57680;54.292;18.598;2022-08-19T00:01:15;22.55;;;15.40;;
70270;SDS011;57680;54.292;18.598;2022-08-19T00:03:40;21.47;;;15.37;;
70270;SDS011;57680;54.292;18.598;2022-08-19T00:06:06;27.25;;;15.90;;
70270;SDS011;57680;54.292;18.598;2022-08-19T00:08:31;21.50;;;15.33;;
70270;SDS011;57680;54.292;18.598;2022-08-19T00:10:57;19.93;;;15.37;;
70270;SDS011;57680;54.292;18.598;2022-08-19T00:13:23;22.07;;;16.00;;
70270;SDS011;57680;54.292;18.598;2022-08-19T00:15:48;23.00;;;16.00;;
70270;SDS011;57680;54.292;18.598;2022-08-19T00:18:13;24.70;;;16.03;;
70270;SDS011;57680;54.292;18.598;2022-08-19T00:20:39;23.73;;;15.68;;
70270;SDS011;57680;54.292;18.598;2022-08-19T00:23:05;23.60;;;15.50;;
70270;SDS011;57680;54.292;18.598;2022-08-19T00:25:32;23.80;;;15.82;;
70270;SDS011;57680;54.292;18.598;2022-08-19T00:27:58;25.73;;;16.17;;
70270;SDS011;57680;54.292;18.598;2022-08-19T00:30:24;25.02;;;16.75;;
70270;SDS011;57680;54.292;18.598;2022-08-19T00:32:52;24.13;;;16.57;;
70270;SDS011;57680;54.292;18.598;2022-08-19T00:35:19;20.92;;;15.75;;
70270;SDS011;57680;54.292;18.598;2022-08-19T00:37:47;27.27;;;17.25;;
70270;SDS011;57680;54.292;18.598;2022-08-19T00:40:15;26.60;;;16.33;;
70270;SDS011;57680;54.292;18.598;2022-08-19T00:42:41;22.88;;;15.82;;
70270;SDS011;57680;54.292;18.598;2022-08-19T00:45:12;22.90;;;15.87;;
70270;SDS011;57680;54.292;18.598;2022-08-19T00:47:42;22.17;;;16.10;;
70270;SDS011;57680;54.292;18.598;2022-08-19T00:50:10;22.25;;;16.23;;
70270;SDS011;57680;54.292;18.598;2022-08-19T00:52:40;23.88;;;16.33;;
70270;SDS011;57680;54.292;18.598;2022-08-19T00:55:10;21.35;;;16.33;;
70270;SDS011;57680;54.292;18.598;2022-08-19T00:57:42;25.27;;;15.70;;
70270;SDS011;57680;54.292;18.598;2022-08-19T01:00:13;22.58;;;15.85;;
70270;SDS011;57680;54.292;18.598;2022-08-19T01:02:41;25.60;;;16.15;;
70270;SDS011;57680;54.292;18.598;2022-08-19T01:05:25;23.27;;;15.82;;
70270;SDS011;57680;54.292;18.598;2022-08-19T01:07:54;21.77;;;15.95;;
70270;SDS011;57680;54.292;18.598;2022-08-19T01:10:22;22.70;;;15.20;;
70270;SDS011;57680;54.292;18.598;2022-08-19T01:12:51;21.13;;;14.90;;
70270;SDS011;57680;54.292;18.598;2022-08-19T01:15:19;22.05;;;16.25;;
70270;SDS011;57680;54.292;18.598;2022-08-19T01:17:47;25.48;;;15.57;;
70270;SDS011;57680;54.292;18.598;2022-08-19T01:20:14;25.15;;;16.30;;
70270;SDS011;57680;54.292;18.598;2022-08-19T01:25:19;24.02;;;16.30;;
70270;SDS011;57680;54.292;18.598;2022-08-19T01:27:49;23.55;;;16.23;;
70270;SDS011;57680;54.292;18.598;2022-08-19T01:30:17;27.35;;;16.60;;
70270;SDS011;57680;54.292;18.598;2022-08-19T01:32:48;26.05;;;16.98;;
70270;SDS011;57680;54.292;18.598;2022-08-19T01:35:15;25.17;;;17.13;;
70270;SDS011;57680;54.292;18.598;2022-08-19T01:40:10;30.33;;;18.13;;
70270;SDS011;57680;54.292;18.598;2022-08-19T01:42:36;26.63;;;16.85;;
70270;SDS011;57680;54.292;18.598;2022-08-19T01:45:02;26.00;;;16.47;;
70270;SDS011;57680;54.292;18.598;2022-08-19T01:47:28;22.73;;;16.90;;
70270;SDS011;57680;54.292;18.598;2022-08-19T01:49:54;23.43;;;16.00;;
70270;SDS011;57680;54.292;18.598;2022-08-19T01:52:20;22.05;;;16.08;;
70270;SDS011;57680;54.292;18.598;2022-08-19T01:54:46;23.65;;;16.15;;
70270;SDS011;57680;54.292;18.598;2022-08-19T01:57:12;26.03;;;15.83;;
70270;SDS011;57680;54.292;18.598;2022-08-19T01:59:40;22.45;;;16.00;;
70270;SDS011;57680;54.292;18.598;2022-08-19T02:02:07;23.13;;;16.08;;
70270;SDS011;57680;54.292;18.598;2022-08-19T02:04:34;25.27;;;17.10;;
70270;SDS011;57680;54.292;18.598;2022-08-19T02:07:00;24.17;;;17.45;;
70270;SDS011;57680;54.292;18.598;2022-08-19T02:09:26;24.13;;;17.27;;
70270;SDS011;57680;54.292;18.598;2022-08-19T02:11:52;24.30;;;16.97;;
70270;SDS011;57680;54.292;18.598;2022-08-19T02:14:18;25.33;;;16.98;;
70270;SDS011;57680;54.292;18.598;2022-08-19T02:16:43;25.85;;;18.33;;
70270;SDS011;57680;54.292;18.598;2022-08-19T02:19:09;26.00;;;17.23;;
70270;SDS011;57680;54.292;18.598;2022-08-19T02:21:35;25.73;;;17.95;;
70270;SDS011;57680;54.292;18.598;2022-08-19T02:24:02;27.33;;;17.30;;
70270;SDS011;57680;54.292;18.598;2022-08-19T02:26:28;24.37;;;16.77;;
70270;SDS011;57680;54.292;18.598;2022-08-19T02:28:54;26.90;;;17.80;;
70270;SDS011;57680;54.292;18.598;2022-08-19T02:31:21;25.95;;;17.15;;
70270;SDS011;57680;54.292;18.598;2022-08-19T02:33:48;24.87;;;15.63;;
70270;SDS011;57680;54.292;18.598;2022-08-19T02:36:15;22.98;;;16.15;;
70270;SDS011;57680;54.292;18.598;2022-08-19T02:38:42;22.85;;;16.48;;
70270;SDS011;57680;54.292;18.598;2022-08-19T02:41:28;23.10;;;15.43;;
70270;SDS011;57680;54.292;18.598;2022-08-19T02:43:57;23.23;;;15.77;;
70270;SDS011;57680;54.292;18.598;2022-08-19T02:46:25;21.93;;;15.97;;
70270;SDS011;57680;54.292;18.598;2022-08-19T02:48:52;23.10;;;16.42;;
70270;SDS011;57680;54.292;18.598;2022-08-19T02:51:21;23.15;;;16.42;;
70270;SDS011;57680;54.292;18.598;2022-08-19T02:53:48;23.77;;;16.55;;
70270;SDS011;57680;54.292;18.598;2022-08-19T02:56:14;25.42;;;16.65;;
70270;SDS011;57680;54.292;18.598;2022-08-19T02:58:40;24.57;;;16.00;;
70270;SDS011;57680;54.292;18.598;2022-08-19T03:01:08;23.73;;;15.55;;
70270;SDS011;57680;54.292;18.598;2022-08-19T03:03:35;23.00;;;16.58;;
70270;SDS011;57680;54.292;18.598;2022-08-19T03:06:10;24.23;;;16.40;;
70270;SDS011;57680;54.292;18.598;2022-08-19T03:08:39;22.38;;;16.15;;
70270;SDS011;57680;54.292;18.598;2022-08-19T03:11:11;24.52;;;16.20;;
70270;SDS011;57680;54.292;18.598;2022-08-19T03:13:57;25.75;;;15.98;;
70270;SDS011;57680;54.292;18.598;2022-08-19T03:16:24;25.67;;;16.42;;
70270;SDS011;57680;54.292;18.598;2022-08-19T03:18:52;23.67;;;15.77;;
70270;SDS011;57680;54.292;18.598;2022-08-19T03:21:21;24.77;;;15.73;;
70270;SDS011;57680;54.292;18.598;2022-08-19T03:23:50;23.00;;;15.27;;
70270;SDS011;57680;54.292;18.598;2022-08-19T03:26:18;22.02;;;15.27;;
70270;SDS011;57680;54.292;18.598;2022-08-19T03:28:44;21.57;;;15.80;;
70270;SDS011;57680;54.292;18.598;2022-08-19T03:31:14;23.63;;;16.20;;
70270;SDS011;57680;54.292;18.598;2022-08-19T03:33:42;25.13;;;17.08;;
70270;SDS011;57680;54.292;18.598;2022-08-19T03:36:15;26.07;;;17.30;;
70270;SDS011;57680;54.292;18.598;2022-08-19T03:38:44;32.67;;;19.83;;
70270;SDS011;57680;54.292;18.598;2022-08-19T03:41:14;30.15;;;19.40;;
70270;SDS011;57680;54.292;18.598;2022-08-19T03:43:44;28.77;;;19.17;;
70270;SDS011;57680;54.292;18.598;2022-08-19T03:46:14;30.63;;;18.60;;
70270;SDS011;57680;54.292;18.598;2022-08-19T03:48:43;28.83;;;19.20;;
70270;SDS011;57680;54.292;18.598;2022-08-19T03:51:19;33.33;;;19.88;;
70270;SDS011;57680;54.292;18.598;2022-08-19T03:53:46;27.73;;;20.00;;
70270;SDS011;57680;54.292;18.598;2022-08-19T03:56:13;32.60;;;18.95;;
70270;SDS011;57680;54.292;18.598;2022-08-19T03:58:40;29.70;;;19.23;;
70270;SDS011;57680;54.292;18.598;2022-08-19T04:01:10;27.27;;;18.43;;
70270;SDS011;57680;54.292;18.598;2022-08-19T04:03:37;26.65;;;17.90;;
70270;SDS011;57680;54.292;18.598;2022-08-19T04:06:20;29.98;;;19.02;;
70270;SDS011;57680;54.292;18.598;2022-08-19T04:08:49;25.42;;;18.73;;
70270;SDS011;57680;54.292;18.598;2022-08-19T04:11:17;26.75;;;17.85;;
70270;SDS011;57680;54.292;18.598;2022-08-19T04:13:48;24.67;;;17.97;;
70270;SDS011;57680;54.292;18.598;2022-08-19T04:16:16;25.38;;;17.88;;
70270;SDS011;57680;54.292;18.598;2022-08-19T04:18:44;25.05;;;18.05;;
70270;SDS011;57680;54.292;18.598;2022-08-19T04:21:14;27.90;;;17.13;;
70270;SDS011;57680;54.292;18.598;2022-08-19T04:23:41;28.85;;;18.33;;
70270;SDS011;57680;54.292;18.598;2022-08-19T04:26:07;27.48;;;17.20;;
70270;SDS011;57680;54.292;18.598;2022-08-19T04:28:37;25.50;;;17.33;;
70270;SDS011;57680;54.292;18.598;2022-08-19T04:31:04;27.02;;;17.48;;
70270;SDS011;57680;54.292;18.598;2022-08-19T04:33:29;24.30;;;16.60;;
70270;SDS011;57680;54.292;18.598;2022-08-19T04:35:55;22.48;;;15.95;;
70270;SDS011;57680;54.292;18.598;2022-08-19T04:38:23;24.98;;;16.08;;
70270;SDS011;57680;54.292;18.598;2022-08-19T04:40:49;26.37;;;17.47;;
70270;SDS011;57680;54.292;18.598;2022-08-19T04:43:51;22.25;;;15.77;;
70270;SDS011;57680;54.292;18.598;2022-08-19T04:46:17;24.20;;;15.17;;
70270;SDS011;57680;54.292;18.598;2022-08-19T04:48:45;22.92;;;14.30;;
70270;SDS011;57680;54.292;18.598;2022-08-19T04:51:11;20.90;;;14.40;;
70270;SDS011;57680;54.292;18.598;2022-08-19T04:53:38;21.08;;;14.38;;
70270;SDS011;57680;54.292;18.598;2022-08-19T04:56:07;21.92;;;14.10;;
70270;SDS011;57680;54.292;18.598;2022-08-19T04:58:38;22.67;;;14.63;;
70270;SDS011;57680;54.292;18.598;2022-08-19T05:01:07;21.88;;;14.15;;
70270;SDS011;57680;54.292;18.598;2022-08-19T05:03:35;21.50;;;14.10;;
70270;SDS011;57680;54.292;18.598;2022-08-19T05:06:05;22.67;;;15.07;;
70270;SDS011;57680;54.292;18.598;2022-08-19T05:08:36;21.20;;;14.40;;
70270;SDS011;57680;54.292;18.598;2022-08-19T05:11:10;23.75;;;14.90;;
70270;SDS011;57680;54.292;18.598;2022-08-19T05:13:38;20.73;;;14.68;;
70270;SDS011;57680;54.292;18.598;2022-08-19T05:16:04;21.77;;;14.65;;
70270;SDS011;57680;54.292;18.598;2022-08-19T05:18:31;25.65;;;15.85;;
70270;SDS011;57680;54.292;18.598;2022-08-19T05:21:17;20.87;;;13.97;;
70270;SDS011;57680;54.292;18.598;2022-08-19T05:24:03;23.27;;;14.85;;
70270;SDS011;57680;54.292;18.598;2022-08-19T05:26:33;20.50;;;13.60;;
70270;SDS011;57680;54.292;18.598;2022-08-19T05:28:59;18.65;;;13.65;;
70270;SDS011;57680;54.292;18.598;2022-08-19T05:31:24;21.80;;;13.87;;
70270;SDS011;57680;54.292;18.598;2022-08-19T05:33:50;20.60;;;14.40;;
70270;SDS011;57680;54.292;18.598;2022-08-19T05:36:16;24.15;;;13.65;;
70270;SDS011;57680;54.292;18.598;2022-08-19T05:38:41;17.77;;;13.23;;
70270;SDS011;57680;54.292;18.598;2022-08-19T05:41:08;19.42;;;12.73;;
70270;SDS011;57680;54.292;18.598;2022-08-19T05:43:35;21.60;;;13.23;;
70270;SDS011;57680;54.292;18.598;2022-08-19T05:46:02;19.00;;;12.80;;
70270;SDS011;57680;54.292;18.598;2022-08-19T05:48:29;19.10;;;13.30;;
70270;SDS011;57680;54.292;18.598;2022-08-19T05:50:56;21.58;;;14.05;;
70270;SDS011;57680;54.292;18.598;2022-08-19T05:53:23;18.80;;;13.02;;
70270;SDS011;57680;54.292;18.598;2022-08-19T05:55:49;19.30;;;14.20;;
70270;SDS011;57680;54.292;18.598;2022-08-19T05:58:14;19.53;;;13.47;;
70270;SDS011;57680;54.292;18.598;2022-08-19T06:00:40;21.05;;;14.23;;
70270;SDS011;57680;54.292;18.598;2022-08-19T06:03:08;21.13;;;13.20;;
70270;SDS011;57680;54.292;18.598;2022-08-19T06:05:35;20.63;;;13.20;;
70270;SDS011;57680;54.292;18.598;2022-08-19T06:08:01;18.40;;;13.07;;
70270;SDS011;57680;54.292;18.598;2022-08-19T06:10:26;18.47;;;13.20;;
70270;SDS011;57680;54.292;18.598;2022-08-19T06:12:52;17.77;;;13.35;;
70270;SDS011;57680;54.292;18.598;2022-08-19T06:15:18;18.77;;;13.38;;
70270;SDS011;57680;54.292;18.598;2022-08-19T06:17:44;18.75;;;12.75;;
70270;SDS011;57680;54.292;18.598;2022-08-19T06:20:12;22.30;;;12.57;;
70270;SDS011;57680;54.292;18.598;2022-08-19T06:22:40;17.42;;;12.98;;
70270;SDS011;57680;54.292;18.598;2022-08-19T06:25:07;20.23;;;13.63;;
70270;SDS011;57680;54.292;18.598;2022-08-19T06:27:34;21.43;;;13.10;;
70270;SDS011;57680;54.292;18.598;2022-08-19T06:30:01;19.70;;;13.10;;
70270;SDS011;57680;54.292;18.598;2022-08-19T06:32:28;20.65;;;13.60;;
70270;SDS011;57680;54.292;18.598;2022-08-19T06:34:54;20.63;;;13.43;;
70270;SDS011;57680;54.292;18.598;2022-08-19T06:37:19;17.98;;;12.55;;
70270;SDS011;57680;54.292;18.598;2022-08-19T06:39:47;19.13;;;12.90;;
70270;SDS011;57680;54.292;18.598;2022-08-19T06:42:13;17.95;;;13.18;;
70270;SDS011;57680;54.292;18.598;2022-08-19T06:44:41;17.47;;;13.13;;
70270;SDS011;57680;54.292;18.598;2022-08-19T06:47:10;16.77;;;12.85;;
70270;SDS011;57680;54.292;18.598;2022-08-19T06:49:38;17.25;;;12.10;;
70270;SDS011;57680;54.292;18.598;2022-08-19T06:52:04;19.20;;;12.67;;
70270;SDS011;57680;54.292;18.598;2022-08-19T06:54:30;22.63;;;11.88;;
70270;SDS011;57680;54.292;18.598;2022-08-19T06:56:57;17.90;;;12.43;;
70270;SDS011;57680;54.292;18.598;2022-08-19T06:59:24;16.85;;;11.70;;
70270;SDS011;57680;54.292;18.598;2022-08-19T07:01:53;18.77;;;11.77;;
70270;SDS011;57680;54.292;18.598;2022-08-19T07:04:22;16.93;;;11.83;;
70270;SDS011;57680;54.292;18.598;2022-08-19T07:06:59;18.83;;;11.95;;
70270;SDS011;57680;54.292;18.598;2022-08-19T07:09:28;16.73;;;11.60;;
70270;SDS011;57680;54.292;18.598;2022-08-19T07:11:54;17.17;;;12.13;;
70270;SDS011;57680;54.292;18.598;2022-08-19T07:14:23;16.37;;;12.20;;
70270;SDS011;57680;54.292;18.598;2022-08-19T07:16:51;18.02;;;12.13;;
70270;SDS011;57680;54.292;18.598;2022-08-19T07:19:20;16.90;;;11.93;;
70270;SDS011;57680;54.292;18.598;2022-08-19T07:21:47;18.40;;;11.68;;
70270;SDS011;57680;54.292;18.598;2022-08-19T07:24:15;16.27;;;11.70;;
70270;SDS011;57680;54.292;18.598;2022-08-19T07:26:42;19.50;;;11.93;;
70270;SDS011;57680;54.292;18.598;2022-08-19T07:29:08;17.73;;;11.20;;
70270;SDS011;57680;54.292;18.598;2022-08-19T07:31:35;16.05;;;11.13;;
70270;SDS011;57680;54.292;18.598;2022-08-19T07:34:02;15.27;;;11.35;;
70270;SDS011;57680;54.292;18.598;2022-08-19T07:36:33;16.42;;;11.77;;
70270;SDS011;57680;54.292;18.598;2022-08-19T07:39:01;18.27;;;11.70;;
70270;SDS011;57680;54.292;18.598;2022-08-19T07:41:30;18.23;;;11.70;;
70270;SDS011;57680;54.292;18.598;2022-08-19T07:43:56;15.88;;;11.65;;
70270;SDS011;57680;54.292;18.598;2022-08-19T07:46:23;16.80;;;11.10;;
70270;SDS011;57680;54.292;18.598;2022-08-19T07:48:49;18.83;;;11.90;;
70270;SDS011;57680;54.292;18.598;2022-08-19T07:51:18;16.75;;;11.57;;
70270;SDS011;57680;54.292;18.598;2022-08-19T07:53:46;18.73;;;11.63;;
70270;SDS011;57680;54.292;18.598;2022-08-19T07:56:13;20.43;;;11.17;;
70270;SDS011;57680;54.292;18.598;2022-08-19T07:58:40;18.02;;;10.93;;
70270;SDS011;57680;54.292;18.598;2022-08-19T08:01:07;15.20;;;11.52;;
70270;SDS011;57680;54.292;18.598;2022-08-19T08:03:35;13.80;;;11.27;;
70270;SDS011;57680;54.292;18.598;2022-08-19T08:06:20;15.35;;;11.23;;
70270;SDS011;57680;54.292;18.598;2022-08-19T08:09:04;15.50;;;10.80;;
70270;SDS011;57680;54.292;18.598;2022-08-19T08:12:11;18.23;;;11.13;;
70270;SDS011;57680;54.292;18.598;2022-08-19T08:14:36;14.93;;;10.18;;
70270;SDS011;57680;54.292;18.598;2022-08-19T08:17:05;15.20;;;10.98;;
70270;SDS011;57680;54.292;18.598;2022-08-19T08:19:33;14.02;;;10.75;;
70270;SDS011;57680;54.292;18.598;2022-08-19T08:21:59;14.50;;;10.13;;
70270;SDS011;57680;54.292;18.598;2022-08-19T08:24:27;14.48;;;10.30;;
70270;SDS011;57680;54.292;18.598;2022-08-19T08:26:56;15.15;;;9.80;;
70270;SDS011;57680;54.292;18.598;2022-08-19T08:29:22;15.20;;;10.38;;
70270;SDS011;57680;54.292;18.598;2022-08-19T08:31:48;16.07;;;9.93;;
70270;SDS011;57680;54.292;18.598;2022-08-19T08:34:14;13.88;;;9.93;;
70270;SDS011;57680;54.292;18.598;2022-08-19T08:36:41;14.77;;;9.60;;
70270;SDS011;57680;54.292;18.598;2022-08-19T08:39:10;12.60;;;10.03;;
70270;SDS011;57680;54.292;18.598;2022-08-19T08:41:53;14.82;;;9.40;;
70270;SDS011;57680;54.292;18.598;2022-08-19T08:44:44;14.18;;;8.98;;
70270;SDS011;57680;54.292;18.598;2022-08-19T08:47:15;15.90;;;9.18;;
70270;SDS011;57680;54.292;18.598;2022-08-19T08:49:49;15.18;;;9.25;;
70270;SDS011;57680;54.292;18.598;2022-08-19T08:52:21;14.77;;;8.33;;
70270;SDS011;57680;54.292;18.598;2022-08-19T08:54:50;16.15;;;8.27;;
70270;SDS011;57680;54.292;18.598;2022-08-19T08:59:57;13.07;;;8.35;;
70270;SDS011;57680;54.292;18.598;2022-08-19T09:02:28;13.32;;;8.30;;
70270;SDS011;57680;54.292;18.598;2022-08-19T09:04:54;13.70;;;8.40;;
70270;SDS011;57680;54.292;18.598;2022-08-19T09:08:03;13.90;;;8.52;;
70270;SDS011;57680;54.292;18.598;2022-08-19T09:13:00;12.73;;;7.50;;
70270;SDS011;57680;54.292;18.598;2022-08-19T09:15:35;19.33;;;9.38;;
70270;SDS011;57680;54.292;18.598;2022-08-19T09:18:05;18.58;;;9.18;;
70270;SDS011;57680;54.292;18.598;2022-08-19T09:20:33;13.20;;;7.80;;
70270;SDS011;57680;54.292;18.598;2022-08-19T09:22:59;13.33;;;7.43;;
70270;SDS011;57680;54.292;18.598;2022-08-19T09:25:25;12.88;;;7.70;;
70270;SDS011;57680;54.292;18.598;2022-08-19T09:27:51;14.07;;;8.07;;
70270;SDS011;57680;54.292;18.598;2022-08-19T09:30:26;11.40;;;7.35;;
70270;SDS011;57680;54.292;18.598;2022-08-19T09:32:53;12.43;;;7.95;;
70270;SDS011;57680;54.292;18.598;2022-08-19T09:35:24;12.27;;;7.32;;
70270;SDS011;57680;54.292;18.598;2022-08-19T09:37:51;14.10;;;8.02;;
70270;SDS011;57680;54.292;18.598;2022-08-19T09:40:17;12.23;;;7.40;;
70270;SDS011;57680;54.292;18.598;2022-08-19T09:42:43;13.85;;;7.88;;
70270;SDS011;57680;54.292;18.598;2022-08-19T09:45:11;12.32;;;7.60;;
70270;SDS011;57680;54.292;18.598;2022-08-19T09:47:37;12.30;;;7.47;;
70270;SDS011;57680;54.292;18.598;2022-08-19T09:50:04;14.03;;;8.03;;
70270;SDS011;57680;54.292;18.598;2022-08-19T09:52:34;12.30;;;7.97;;
70270;SDS011;57680;54.292;18.598;2022-08-19T09:55:02;11.02;;;7.70;;
70270;SDS011;57680;54.292;18.598;2022-08-19T09:57:31;13.57;;;7.30;;
70270;SDS011;57680;54.292;18.598;2022-08-19T09:59:57;12.80;;;7.40;;
70270;SDS011;57680;54.292;18.598;2022-08-19T10:02:23;12.35;;;7.35;;
70270;SDS011;57680;54.292;18.598;2022-08-19T10:04:49;11.18;;;7.30;;
70270;SDS011;57680;54.292;18.598;2022-08-19T10:07:50;11.90;;;7.37;;
70270;SDS011;57680;54.292;18.598;2022-08-19T10:10:16;10.18;;;7.35;;
70270;SDS011;57680;54.292;18.598;2022-08-19T10:12:42;11.00;;;7.13;;
70270;SDS011;57680;54.292;18.598;2022-08-19T10:15:12;9.57;;;7.30;;
70270;SDS011;57680;54.292;18.598;2022-08-19T10:17:38;11.97;;;7.50;;
70270;SDS011;57680;54.292;18.598;2022-08-19T10:20:04;11.20;;;7.22;;
70270;SDS011;57680;54.292;18.598;2022-08-19T10:22:30;14.33;;;7.27;;
70270;SDS011;57680;54.292;18.598;2022-08-19T10:24:55;11.73;;;7.60;;
70270;SDS011;57680;54.292;18.598;2022-08-19T10:27:21;13.43;;;7.80;;
70270;SDS011;57680;54.292;18.598;2022-08-19T10:29:47;12.73;;;7.38;;
70270;SDS011;57680;54.292;18.598;2022-08-19T10:32:13;11.73;;;7.90;;
70270;SDS011;57680;54.292;18.598;2022-08-19T10:34:38;18.00;;;8.40;;
70270;SDS011;57680;54.292;18.598;2022-08-19T10:37:05;11.63;;;7.80;;
70270;SDS011;57680;54.292;18.598;2022-08-19T10:39:32;13.65;;;7.72;;
70270;SDS011;57680;54.292;18.598;2022-08-19T10:41:58;12.57;;;7.50;;
70270;SDS011;57680;54.292;18.598;2022-08-19T10:44:24;16.15;;;7.43;;
70270;SDS011;57680;54.292;18.598;2022-08-19T10:46:50;11.48;;;7.20;;
70270;SDS011;57680;54.292;18.598;2022-08-19T10:49:17;14.65;;;7.38;;
70270;SDS011;57680;54.292;18.598;2022-08-19T10:51:44;14.73;;;7.72;;
70270;SDS011;57680;54.292;18.598;2022-08-19T10:54:28;12.43;;;7.40;;
70270;SDS011;57680;54.292;18.598;2022-08-19T10:57:13;12.77;;;7.57;;
70270;SDS011;57680;54.292;18.598;2022-08-19T10:59:39;13.25;;;6.78;;
70270;SDS011;57680;54.292;18.598;2022-08-19T11:02:06;10.87;;;7.53;;
70270;SDS011;57680;54.292;18.598;2022-08-19T11:04:35;12.38;;;7.45;;
70270;SDS011;57680;54.292;18.598;2022-08-19T11:07:02;9.98;;;7.10;;
70270;SDS011;57680;54.292;18.598;2022-08-19T11:09:29;11.52;;;7.82;;
70270;SDS011;57680;54.292;18.598;2022-08-19T11:11:55;10.83;;;7.33;;
70270;SDS011;57680;54.292;18.598;2022-08-19T11:14:21;9.23;;;6.78;;
70270;SDS011;57680;54.292;18.598;2022-08-19T11:16:49;11.50;;;7.40;;
70270;SDS011;57680;54.292;18.598;2022-08-19T11:19:17;13.90;;;7.82;;
70270;SDS011;57680;54.292;18.598;2022-08-19T11:21:45;13.40;;;7.63;;
70270;SDS011;57680;54.292;18.598;2022-08-19T11:24:17;13.13;;;7.32;;
70270;SDS011;57680;54.292;18.598;2022-08-19T11:26:48;10.98;;;7.35;;
70270;SDS011;57680;54.292;18.598;2022-08-19T11:29:16;12.07;;;7.60;;
70270;SDS011;57680;54.292;18.598;2022-08-19T11:31:45;12.18;;;7.00;;
70270;SDS011;57680;54.292;18.598;2022-08-19T11:34:13;13.77;;;7.80;;
70270;SDS011;57680;54.292;18.598;2022-08-19T11:36:43;13.10;;;7.47;;
70270;SDS011;57680;54.292;18.598;2022-08-19T11:39:11;14.52;;;7.93;;
70270;SDS011;57680;54.292;18.598;2022-08-19T11:41:38;13.57;;;8.27;;
70270;SDS011;57680;54.292;18.598;2022-08-19T11:44:04;10.93;;;7.97;;
70270;SDS011;57680;54.292;18.598;2022-08-19T11:46:32;12.07;;;7.70;;
70270;SDS011;57680;54.292;18.598;2022-08-19T11:49:00;12.98;;;8.55;;
70270;SDS011;57680;54.292;18.598;2022-08-19T11:51:27;24.67;;;8.55;;
70270;SDS011;57680;54.292;18.598;2022-08-19T11:53:54;13.68;;;8.18;;
70270;SDS011;57680;54.292;18.598;2022-08-19T11:56:21;11.73;;;8.05;;
70270;SDS011;57680;54.292;18.598;2022-08-19T11:58:48;10.63;;;8.00;;
70270;SDS011;57680;54.292;18.598;2022-08-19T12:01:15;13.40;;;7.70;;
70270;SDS011;57680;54.292;18.598;2022-08-19T12:03:43;15.23;;;7.90;;
70270;SDS011;57680;54.292;18.598;2022-08-19T12:06:11;11.63;;;7.67;;
70270;SDS011;57680;54.292;18.598;2022-08-19T12:08:38;14.23;;;7.35;;
70270;SDS011;57680;54.292;18.598;2022-08-19T12:11:05;11.82;;;7.57;;
70270;SDS011;57680;54.292;18.598;2022-08-19T12:13:33;12.32;;;7.82;;
70270;SDS011;57680;54.292;18.598;2022-08-19T12:15:59;14.13;;;8.35;;
70270;SDS011;57680;54.292;18.598;2022-08-19T12:18:25;12.57;;;8.10;;
70270;SDS011;57680;54.292;18.598;2022-08-19T12:20:52;16.83;;;7.80;;
70270;SDS011;57680;54.292;18.598;2022-08-19T12:23:19;11.27;;;7.70;;
70270;SDS011;57680;54.292;18.598;2022-08-19T12:25:46;12.75;;;7.50;;
70270;SDS011;57680;54.292;18.598;2022-08-19T12:28:17;24.17;;;8.10;;
70270;SDS011;57680;54.292;18.598;2022-08-19T12:30:47;15.60;;;7.68;;
70270;SDS011;57680;54.292;18.598;2022-08-19T12:33:14;12.60;;;7.35;;
70270;SDS011;57680;54.292;18.598;2022-08-19T12:35:40;11.38;;;7.20;;
70270;SDS011;57680;54.292;18.598;2022-08-19T12:38:07;11.32;;;7.40;;
70270;SDS011;57680;54.292;18.598;2022-08-19T12:40:33;13.73;;;7.40;;
70270;SDS011;57680;54.292;18.598;2022-08-19T12:42:59;12.13;;;7.80;;
70270;SDS011;57680;54.292;18.598;2022-08-19T12:45:25;13.43;;;7.75;;
70270;SDS011;57680;54.292;18.598;2022-08-19T12:47:50;14.63;;;8.00;;
70270;SDS011;57680;54.292;18.598;2022-08-19T12:50:17;10.52;;;6.93;;
70270;SDS011;57680;54.292;18.598;2022-08-19T12:52:44;11.20;;;7.57;;
70270;SDS011;57680;54.292;18.598;2022-08-19T12:55:09;12.70;;;7.63;;
70270;SDS011;57680;54.292;18.598;2022-08-19T12:57:36;13.65;;;7.70;;
70270;SDS011;57680;54.292;18.598;2022-08-19T13:00:13;13.25;;;7.95;;
70270;SDS011;57680;54.292;18.598;2022-08-19T13:02:42;25.77;;;8.37;;
70270;SDS011;57680;54.292;18.598;2022-08-19T13:05:11;16.30;;;8.20;;
70270;SDS011;57680;54.292;18.598;2022-08-19T13:07:41;11.40;;;7.47;;
70270;SDS011;57680;54.292;18.598;2022-08-19T13:10:09;15.30;;;7.93;;
70270;SDS011;57680;54.292;18.598;2022-08-19T13:12:37;14.07;;;8.13;;
70270;SDS011;57680;54.292;18.598;2022-08-19T13:15:03;11.77;;;7.30;;
70270;SDS011;57680;54.292;18.598;2022-08-19T13:17:29;10.98;;;7.50;;
70270;SDS011;57680;54.292;18.598;2022-08-19T13:19:55;46.03;;;9.50;;
70270;SDS011;57680;54.292;18.598;2022-08-19T13:22:21;11.23;;;7.77;;
70270;SDS011;57680;54.292;18.598;2022-08-19T13:24:47;10.35;;;7.75;;
70270;SDS011;57680;54.292;18.598;2022-08-19T13:27:13;12.83;;;7.80;;
70270;SDS011;57680;54.292;18.598;2022-08-19T13:29:40;14.80;;;7.25;;
70270;SDS011;57680;54.292;18.598;2022-08-19T13:32:24;10.80;;;7.63;;
70270;SDS011;57680;54.292;18.598;2022-08-19T13:35:08;19.70;;;7.85;;
70270;SDS011;57680;54.292;18.598;2022-08-19T13:37:34;11.43;;;7.37;;
70270;SDS011;57680;54.292;18.598;2022-08-19T13:42:41;13.05;;;8.18;;
70270;SDS011;57680;54.292;18.598;2022-08-19T13:45:08;12.73;;;8.00;;
70270;SDS011;57680;54.292;18.598;2022-08-19T13:47:34;10.97;;;7.83;;
70270;SDS011;57680;54.292;18.598;2022-08-19T13:50:03;15.55;;;7.47;;
70270;SDS011;57680;54.292;18.598;2022-08-19T13:52:29;18.55;;;7.80;;
70270;SDS011;57680;54.292;18.598;2022-08-19T13:54:55;14.77;;;7.53;;
70270;SDS011;57680;54.292;18.598;2022-08-19T13:57:21;18.25;;;8.00;;
70270;SDS011;57680;54.292;18.598;2022-08-19T13:59:47;14.40;;;7.80;;
70270;SDS011;57680;54.292;18.598;2022-08-19T14:02:12;14.33;;;7.80;;
70270;SDS011;57680;54.292;18.598;2022-08-19T14:04:38;11.10;;;7.93;;
70270;SDS011;57680;54.292;18.598;2022-08-19T14:07:03;11.80;;;7.67;;
70270;SDS011;57680;54.292;18.598;2022-08-19T14:09:29;13.23;;;7.97;;
70270;SDS011;57680;54.292;18.598;2022-08-19T14:11:55;13.32;;;8.10;;
70270;SDS011;57680;54.292;18.598;2022-08-19T14:14:21;12.67;;;7.53;;
70270;SDS011;57680;54.292;18.598;2022-08-19T14:16:47;14.27;;;8.25;;
70270;SDS011;57680;54.292;18.598;2022-08-19T14:19:13;11.65;;;7.80;;
70270;SDS011;57680;54.292;18.598;2022-08-19T14:21:39;13.23;;;7.83;;
70270;SDS011;57680;54.292;18.598;2022-08-19T14:24:05;14.95;;;8.00;;
70270;SDS011;57680;54.292;18.598;2022-08-19T14:26:31;23.65;;;8.15;;
70270;SDS011;57680;54.292;18.598;2022-08-19T14:28:57;14.67;;;7.83;;
70270;SDS011;57680;54.292;18.598;2022-08-19T14:31:22;13.18;;;7.53;;
70270;SDS011;57680;54.292;18.598;2022-08-19T14:33:48;11.83;;;7.33;;